Time;durP1;ratioP1;P1;durP2;ratioP2;P2;SDS_P1;SDS_P2;PMS_P1;PMS_P2;Temp;Humidity;BMP_temperature;BMP_pressure;BME280_temperature;BME280_humidity;BME280_pressure;Samples;Min_cycle;Max_cycle;Signal;HPM_P1;HPM_P2
2023/10/26 00:00:34;;;;;;;47.83;14.75;;;7.00;99.90;;;;;;5074852;28;20032;-95
2023/10/26 00:02:59;;;;;;;43.30;14.15;;;7.00;99.90;;;;;;5074134;28;20023;-94
2023/10/26 00:05:25;;;;;;;53.58;13.38;;;7.00;99.90;;;;;;5074217;28;20058;-96
2023/10/26 00:07:51;;;;;;;44.45;13.85;;;6.90;99.90;;;;;;5075588;28;20029;-94
2023/10/26 00:10:17;;;;;;;62.08;15.98;;;7.00;99.90;;;;;;5074981;28;20139;-94
2023/10/26 00:12:44;;;;;;;47.72;14.43;;;7.00;99.90;;;;;;5074466;28;20481;-94
2023/10/26 00:15:10;;;;;;;41.80;14.27;;;6.90;99.90;;;;;;5073981;28;20051;-95
2023/10/26 00:17:39;;;;;;;57.03;15.88;;;6.90;99.90;;;;;;5073676;28;20092;-95
2023/10/26 00:20:08;;;;;;;51.60;14.80;;;6.90;99.90;;;;;;5074575;28;20055;-95
2023/10/26 00:22:34;;;;;;;42.55;14.75;;;6.90;99.90;;;;;;5075246;28;20029;-96
2023/10/26 00:24:59;;;;;;;79.15;19.13;;;6.90;99.90;;;;;;5073851;28;20032;-96
2023/10/26 00:27:25;;;;;;;43.38;14.13;;;7.00;99.90;;;;;;5073342;28;20036;-95
2023/10/26 00:29:51;;;;;;;42.30;15.07;;;6.90;99.90;;;;;;5073632;28;20029;-95
2023/10/26 00:32:17;;;;;;;29.02;14.25;;;6.90;99.90;;;;;;5073165;28;20056;-96
2023/10/26 00:34:43;;;;;;;45.25;15.98;;;7.00;99.90;;;;;;5073993;28;20028;-94
2023/10/26 00:37:09;;;;;;;50.10;15.68;;;7.00;99.90;;;;;;5074358;28;20059;-95
2023/10/26 00:39:35;;;;;;;55.03;16.35;;;7.00;99.90;;;;;;5073227;28;20504;-94
2023/10/26 00:42:00;;;;;;;53.83;16.08;;;7.00;99.90;;;;;;5073249;28;20108;-94
2023/10/26 00:44:26;;;;;;;44.53;14.88;;;7.10;99.90;;;;;;5073225;28;20020;-94
2023/10/26 00:46:54;;;;;;;65.80;13.95;;;7.00;99.90;;;;;;5073209;28;20025;-94
2023/10/26 00:49:20;;;;;;;40.15;14.52;;;7.00;99.90;;;;;;5073334;28;20017;-93
2023/10/26 00:51:51;;;;;;;30.75;14.68;;;7.00;99.90;;;;;;5074162;28;20103;-94
2023/10/26 00:54:20;;;;;;;39.22;14.00;;;7.00;99.90;;;;;;5072830;28;20036;-93
2023/10/26 00:56:50;;;;;;;37.70;13.93;;;7.00;99.90;;;;;;5074004;28;20497;-94
2023/10/26 00:59:17;;;;;;;82.88;15.25;;;7.00;99.90;;;;;;5073217;28;20103;-95
2023/10/26 01:01:48;;;;;;;195.48;17.42;;;6.90;99.90;;;;;;5073139;28;20075;-94
2023/10/26 01:04:14;;;;;;;52.75;15.40;;;6.90;99.90;;;;;;5074906;28;20121;-94
2023/10/26 01:06:44;;;;;;;47.72;14.93;;;6.90;99.90;;;;;;5079108;28;20028;-94
2023/10/26 01:09:10;;;;;;;80.35;14.38;;;6.90;99.90;;;;;;5077851;28;20032;-94
2023/10/26 01:11:39;;;;;;;50.70;16.60;;;6.80;99.90;;;;;;5073344;28;20025;-94
2023/10/26 01:14:05;;;;;;;50.25;15.07;;;6.80;99.90;;;;;;5073284;28;20127;-94
2023/10/26 01:16:32;;;;;;;45.28;15.82;;;6.80;99.90;;;;;;5073607;28;20027;-93
2023/10/26 01:19:02;;;;;;;47.10;13.45;;;6.90;99.90;;;;;;5073180;28;20040;-94
2023/10/26 01:21:29;;;;;;;43.60;14.98;;;6.90;99.90;;;;;;5073138;28;20466;-95
2023/10/26 01:23:55;;;;;;;102.97;16.08;;;6.90;99.90;;;;;;5072968;28;20104;-93
2023/10/26 01:26:20;;;;;;;54.65;15.05;;;6.90;99.90;;;;;;5074502;28;20060;-94
2023/10/26 01:28:46;;;;;;;31.15;12.30;;;6.90;99.90;;;;;;5073994;28;20108;-94
2023/10/26 01:31:16;;;;;;;35.53;12.25;;;6.90;99.90;;;;;;5074143;28;20078;-94
2023/10/26 01:33:42;;;;;;;43.45;12.95;;;6.90;99.90;;;;;;5073533;28;20089;-96
2023/10/26 01:36:08;;;;;;;43.17;13.55;;;6.90;99.90;;;;;;5073821;28;20029;-95
2023/10/26 01:38:34;;;;;;;50.97;13.32;;;6.90;99.90;;;;;;5074005;28;20031;-94
2023/10/26 01:41:00;;;;;;;40.83;14.45;;;6.90;99.90;;;;;;5073578;28;20051;-95
2023/10/26 01:43:26;;;;;;;80.13;15.25;;;6.80;99.90;;;;;;5072825;28;20473;-94
2023/10/26 01:45:52;;;;;;;50.00;14.95;;;6.80;99.90;;;;;;5074556;28;20031;-96
2023/10/26 01:48:18;;;;;;;127.47;15.75;;;6.80;99.90;;;;;;5076474;28;20032;-94
2023/10/26 01:50:43;;;;;;;34.35;13.48;;;6.80;99.90;;;;;;5088718;28;20021;-95
2023/10/26 01:53:09;;;;;;;37.13;15.32;;;6.80;99.90;;;;;;5087691;28;20045;-94
2023/10/26 01:55:34;;;;;;;51.90;15.35;;;6.90;99.90;;;;;;5074603;28;20127;-94
2023/10/26 01:58:00;;;;;;;32.38;14.57;;;6.80;99.90;;;;;;5075938;28;20048;-95
2023/10/26 02:00:26;;;;;;;53.78;14.60;;;6.80;99.90;;;;;;5076607;28;20021;-96
2023/10/26 02:02:51;;;;;;;74.60;16.58;;;6.90;99.90;;;;;;5076543;28;20107;-95
2023/10/26 02:05:17;;;;;;;146.38;18.55;;;6.90;99.90;;;;;;5076346;28;20173;-95
2023/10/26 02:07:43;;;;;;;38.35;15.18;;;6.80;99.90;;;;;;5077165;28;20048;-93
2023/10/26 02:10:13;;;;;;;152.40;15.52;;;6.80;99.90;;;;;;5076199;28;20017;-93
2023/10/26 02:12:39;;;;;;;93.78;15.23;;;6.90;99.90;;;;;;5075458;28;20037;-94
2023/10/26 02:15:05;;;;;;;37.83;14.35;;;6.80;99.90;;;;;;5076387;28;20043;-94
2023/10/26 02:17:31;;;;;;;33.80;14.00;;;6.80;99.90;;;;;;5079169;28;20025;-95
2023/10/26 02:19:56;;;;;;;38.28;15.65;;;6.90;99.90;;;;;;5077037;28;20032;-94
2023/10/26 02:22:22;;;;;;;75.18;15.18;;;6.80;99.90;;;;;;5075565;28;20028;-96
2023/10/26 02:24:48;;;;;;;51.63;14.23;;;6.80;99.90;;;;;;5075485;28;20024;-94
2023/10/26 02:27:13;;;;;;;93.95;15.75;;;6.80;99.90;;;;;;5075057;28;20024;-92
2023/10/26 02:29:39;;;;;;;41.40;14.48;;;6.80;99.90;;;;;;5075258;28;20033;-94
2023/10/26 02:32:06;;;;;;;42.65;13.60;;;6.80;99.90;;;;;;5075196;28;20052;-94
2023/10/26 02:34:31;;;;;;;54.78;15.00;;;6.80;99.90;;;;;;5075471;28;20509;-95
2023/10/26 02:36:59;;;;;;;65.03;15.52;;;6.80;99.90;;;;;;5075843;28;20032;-95
2023/10/26 02:39:25;;;;;;;47.20;14.63;;;6.80;99.90;;;;;;5076350;28;20031;-95
2023/10/26 02:41:51;;;;;;;50.92;14.55;;;6.80;99.90;;;;;;5076137;28;20029;-93
2023/10/26 02:44:17;;;;;;;43.30;13.27;;;6.80;99.90;;;;;;5076331;28;20021;-94
2023/10/26 02:46:43;;;;;;;48.20;14.20;;;6.80;99.90;;;;;;5076738;28;20470;-95
2023/10/26 02:49:09;;;;;;;44.97;14.88;;;6.80;99.90;;;;;;5075837;28;20082;-95
2023/10/26 02:51:35;;;;;;;38.17;14.90;;;6.80;99.90;;;;;;5076455;28;20488;-95
2023/10/26 02:54:01;;;;;;;35.17;15.00;;;6.80;99.90;;;;;;5076851;28;20037;-95
2023/10/26 02:56:26;;;;;;;36.15;14.05;;;6.80;99.90;;;;;;5076132;28;20024;-95
2023/10/26 02:58:52;;;;;;;39.28;15.45;;;6.90;99.90;;;;;;5077795;28;20024;-95
2023/10/26 03:01:18;;;;;;;33.83;13.95;;;6.90;99.90;;;;;;5073838;28;20394;-95
2023/10/26 03:03:43;;;;;;;30.80;13.77;;;6.90;99.90;;;;;;5057631;28;20033;-96
2023/10/26 03:06:09;;;;;;;42.03;15.23;;;6.90;99.90;;;;;;5058420;28;20124;-95
2023/10/26 03:08:34;;;;;;;40.25;13.95;;;6.90;99.90;;;;;;5057834;28;20115;-95
2023/10/26 03:11:00;;;;;;;34.10;14.48;;;6.90;99.90;;;;;;5057996;28;20027;-96
2023/10/26 03:13:26;;;;;;;34.15;13.57;;;6.90;99.90;;;;;;5058027;28;20029;-96
2023/10/26 03:15:51;;;;;;;31.23;14.02;;;6.90;99.90;;;;;;5057394;28;20021;-95
2023/10/26 03:18:17;;;;;;;30.70;13.57;;;6.90;99.90;;;;;;5062715;28;20033;-96
2023/10/26 03:20:43;;;;;;;35.42;15.35;;;6.90;99.90;;;;;;5065302;28;20040;-94
2023/10/26 03:23:08;;;;;;;32.60;14.77;;;6.90;99.90;;;;;;5077532;28;20080;-91
2023/10/26 03:25:34;;;;;;;32.42;14.55;;;7.00;99.90;;;;;;5078510;28;20009;-91
2023/10/26 03:27:59;;;;;;;30.40;13.43;;;7.00;99.90;;;;;;5078557;28;20015;-91
2023/10/26 03:30:25;;;;;;;25.77;12.75;;;6.90;99.90;;;;;;5078596;28;20023;-90
2023/10/26 03:32:52;;;;;;;27.65;12.02;;;6.90;99.90;;;;;;5078568;28;20045;-90
2023/10/26 03:35:17;;;;;;;28.35;13.32;;;6.90;99.90;;;;;;5078468;28;20041;-91
2023/10/26 03:37:43;;;;;;;28.20;12.35;;;6.90;99.90;;;;;;5079032;28;20032;-91
2023/10/26 03:40:10;;;;;;;31.40;13.15;;;6.90;99.90;;;;;;5078320;28;20018;-91
2023/10/26 03:42:36;;;;;;;26.00;12.20;;;6.90;99.90;;;;;;5078353;28;20005;-92
2023/10/26 03:45:02;;;;;;;29.85;12.77;;;6.90;99.90;;;;;;5078193;28;20079;-91
2023/10/26 03:47:27;;;;;;;33.15;14.43;;;6.90;99.90;;;;;;5061586;28;20029;-92
2023/10/26 03:49:53;;;;;;;29.40;12.32;;;7.00;99.90;;;;;;5078271;28;20012;-92
2023/10/26 03:52:23;;;;;;;28.90;12.57;;;6.90;99.90;;;;;;5078271;28;20081;-91
2023/10/26 03:54:48;;;;;;;28.75;13.40;;;6.90;99.90;;;;;;5078413;28;20029;-95
2023/10/26 03:57:15;;;;;;;29.17;13.80;;;7.00;99.90;;;;;;5077856;28;20037;-92
2023/10/26 03:59:41;;;;;;;29.27;13.25;;;7.00;99.90;;;;;;5078533;28;20033;-91
2023/10/26 04:02:07;;;;;;;29.40;13.07;;;6.90;99.90;;;;;;5078005;28;20029;-90
2023/10/26 04:04:34;;;;;;;27.25;12.57;;;6.90;99.90;;;;;;5076641;28;20029;-95
2023/10/26 04:07:00;;;;;;;31.52;13.55;;;6.90;99.90;;;;;;5076589;28;20013;-92
2023/10/26 04:09:27;;;;;;;25.90;12.75;;;6.90;99.90;;;;;;5073565;28;20019;-95
2023/10/26 04:11:53;;;;;;;28.33;13.18;;;6.90;99.90;;;;;;5062328;28;20029;-96
2023/10/26 04:14:20;;;;;;;28.75;12.55;;;7.00;99.90;;;;;;5063031;28;20047;-95
2023/10/26 04:16:47;;;;;;;29.08;13.35;;;7.00;99.90;;;;;;5061856;28;20028;-96
2023/10/26 04:19:14;;;;;;;26.30;12.57;;;7.00;99.90;;;;;;5055930;28;20028;-94
2023/10/26 04:21:39;;;;;;;26.85;12.98;;;7.00;99.90;;;;;;5055969;28;20036;-95
2023/10/26 04:24:05;;;;;;;27.20;12.27;;;7.00;99.90;;;;;;5063120;28;20024;-94
2023/10/26 04:26:31;;;;;;;25.20;12.65;;;7.00;99.90;;;;;;5063184;28;20419;-94
2023/10/26 04:28:56;;;;;;;26.98;12.63;;;7.00;99.90;;;;;;5058299;28;20144;-96
2023/10/26 04:31:22;;;;;;;23.13;11.90;;;7.00;99.90;;;;;;5055184;28;20128;-95
2023/10/26 04:33:49;;;;;;;30.00;14.52;;;7.00;99.90;;;;;;5059132;28;20087;-95
2023/10/26 04:36:14;;;;;;;29.65;12.18;;;7.00;99.90;;;;;;5060596;28;20025;-95
2023/10/26 04:38:40;;;;;;;27.40;12.45;;;7.00;99.90;;;;;;5067770;28;20084;-96
2023/10/26 04:41:06;;;;;;;28.42;13.63;;;7.00;99.90;;;;;;5055828;28;20026;-95
2023/10/26 04:43:32;;;;;;;26.23;12.23;;;7.00;99.90;;;;;;5054330;28;20029;-94
2023/10/26 04:45:57;;;;;;;25.02;12.65;;;7.10;99.90;;;;;;5053471;28;20025;-93
2023/10/26 04:48:23;;;;;;;28.95;14.15;;;7.10;99.90;;;;;;5053582;28;20478;-95
2023/10/26 04:50:49;;;;;;;26.83;12.82;;;7.10;99.90;;;;;;5055077;28;20025;-96
2023/10/26 04:53:14;;;;;;;26.08;12.77;;;7.10;99.90;;;;;;5062130;28;20036;-96
2023/10/26 04:55:40;;;;;;;30.60;14.05;;;7.00;99.90;;;;;;5062327;28;20029;-96
2023/10/26 04:58:06;;;;;;;23.95;11.48;;;7.10;99.90;;;;;;5066996;28;20032;-96
2023/10/26 05:00:33;;;;;;;28.73;12.80;;;7.00;99.90;;;;;;5073835;28;20040;-94
2023/10/26 05:02:59;;;;;;;27.92;12.35;;;7.10;99.90;;;;;;5076533;28;20025;-95
2023/10/26 05:05:30;;;;;;;24.77;12.35;;;7.10;99.90;;;;;;5077857;28;20040;-90
2023/10/26 05:07:57;;;;;;;26.15;12.25;;;7.10;99.90;;;;;;5077477;28;20052;-89
2023/10/26 05:10:27;;;;;;;24.90;11.73;;;7.10;99.90;;;;;;5078979;28;20041;-93
2023/10/26 05:12:55;;;;;;;20.80;11.80;;;7.10;99.90;;;;;;5078332;28;20052;-92
2023/10/26 05:15:47;;;;;;;21.40;10.65;;;7.10;99.90;;;;;;5063129;28;20044;-90
2023/10/26 05:18:15;;;;;;;19.40;9.38;;;7.10;99.90;;;;;;5094768;28;20035;-89
2023/10/26 05:20:47;;;;;;;20.90;10.55;;;7.10;99.90;;;;;;5078455;28;20040;-89
2023/10/26 05:23:13;;;;;;;21.48;10.13;;;7.10;99.90;;;;;;5078110;28;20021;-89
2023/10/26 05:25:39;;;;;;;19.42;10.02;;;7.10;99.90;;;;;;5077881;28;20013;-88
2023/10/26 05:28:06;;;;;;;20.50;10.15;;;7.10;99.90;;;;;;5077518;28;20037;-92
2023/10/26 05:30:34;;;;;;;20.30;10.30;;;7.10;99.90;;;;;;5077503;28;20017;-91
2023/10/26 05:33:01;;;;;;;17.63;9.02;;;7.10;99.90;;;;;;5080312;28;20048;-93
2023/10/26 05:35:26;;;;;;;19.58;10.65;;;7.10;99.90;;;;;;5079639;28;20029;-94
2023/10/26 05:37:52;;;;;;;17.48;8.57;;;7.20;99.90;;;;;;5081204;28;20017;-91
2023/10/26 05:40:18;;;;;;;19.48;9.68;;;7.20;99.90;;;;;;5081149;28;20024;-90
2023/10/26 05:42:44;;;;;;;20.63;10.80;;;7.20;99.90;;;;;;5081649;28;20043;-90
2023/10/26 05:45:12;;;;;;;19.95;9.82;;;7.20;99.90;;;;;;5081007;28;20033;-90
2023/10/26 05:47:37;;;;;;;21.30;10.18;;;7.20;99.90;;;;;;5080965;28;20104;-90
2023/10/26 05:50:07;;;;;;;16.92;9.15;;;7.20;99.90;;;;;;5081060;28;20013;-88
2023/10/26 05:52:33;;;;;;;16.00;8.57;;;7.20;99.90;;;;;;5080821;28;20090;-90
2023/10/26 05:54:59;;;;;;;23.27;9.77;;;7.20;99.90;;;;;;5081300;28;20046;-89
2023/10/26 05:57:27;;;;;;;19.80;8.52;;;7.20;99.90;;;;;;5080760;28;20029;-90
2023/10/26 05:59:56;;;;;;;14.75;8.43;;;7.20;99.90;;;;;;5080717;28;20017;-91
2023/10/26 06:02:45;;;;;;;16.35;9.43;;;7.30;99.90;;;;;;5080615;28;20081;-90
2023/10/26 06:05:10;;;;;;;17.42;9.00;;;7.30;99.90;;;;;;5077143;28;20179;-92
2023/10/26 06:07:36;;;;;;;21.63;10.52;;;7.30;99.90;;;;;;5079448;28;20029;-93
2023/10/26 06:10:05;;;;;;;19.80;10.65;;;7.40;99.90;;;;;;5069569;28;20051;-96
2023/10/26 06:12:31;;;;;;;19.80;10.30;;;7.40;99.90;;;;;;5061027;28;20021;-94
2023/10/26 06:14:57;;;;;;;24.98;10.98;;;7.40;99.90;;;;;;5057028;28;20055;-95
2023/10/26 06:17:23;;;;;;;22.70;10.88;;;7.40;99.90;;;;;;5076566;28;20028;-95
2023/10/26 06:19:49;;;;;;;22.48;10.10;;;7.50;99.90;;;;;;5076232;28;20021;-93
2023/10/26 06:22:15;;;;;;;27.23;12.15;;;7.50;99.90;;;;;;5081689;28;20020;-96
2023/10/26 06:24:41;;;;;;;22.23;10.90;;;7.50;99.90;;;;;;5075714;28;20454;-94
2023/10/26 06:27:07;;;;;;;28.00;12.30;;;7.60;99.90;;;;;;5074305;28;20082;-94
2023/10/26 06:29:33;;;;;;;27.00;11.85;;;7.60;99.90;;;;;;5072155;28;20104;-95
2023/10/26 06:31:58;;;;;;;26.05;12.13;;;7.60;99.90;;;;;;5071413;28;20115;-94
2023/10/26 06:34:25;;;;;;;30.27;13.52;;;7.70;99.90;;;;;;5075982;28;20557;-94
2023/10/26 06:36:51;;;;;;;35.65;14.77;;;7.70;99.90;;;;;;5074334;28;20029;-95
2023/10/26 06:39:17;;;;;;;29.48;12.15;;;7.80;99.90;;;;;;5086137;28;20025;-95
2023/10/26 06:41:43;;;;;;;32.80;14.35;;;7.80;99.90;;;;;;5082947;28;20032;-93
2023/10/26 06:44:09;;;;;;;35.03;13.80;;;7.90;99.90;;;;;;5079066;28;20021;-94
2023/10/26 06:46:34;;;;;;;34.35;14.88;;;8.00;99.90;;;;;;5082840;28;20022;-93
2023/10/26 06:49:00;;;;;;;32.50;13.88;;;8.00;99.90;;;;;;5062273;28;20044;-95
2023/10/26 06:51:25;;;;;;;37.13;16.48;;;8.10;99.90;;;;;;5068251;28;20036;-96
2023/10/26 06:53:51;;;;;;;36.83;15.48;;;8.10;99.90;;;;;;5074871;28;20048;-94
2023/10/26 06:56:17;;;;;;;42.65;17.45;;;8.20;99.90;;;;;;5075249;28;20023;-96
2023/10/26 06:58:48;;;;;;;41.92;17.70;;;8.20;99.90;;;;;;5094326;28;20021;-92
2023/10/26 07:01:13;;;;;;;39.58;17.25;;;8.20;99.90;;;;;;5083159;28;20087;-90
2023/10/26 07:03:39;;;;;;;39.20;16.98;;;8.20;99.90;;;;;;5095675;28;20028;-92
2023/10/26 07:06:06;;;;;;;38.53;16.88;;;8.20;99.90;;;;;;5099219;28;20044;-90
2023/10/26 07:08:34;;;;;;;37.28;16.15;;;8.20;99.90;;;;;;5074747;28;20040;-90
2023/10/26 07:11:08;;;;;;;42.05;16.90;;;8.20;99.90;;;;;;5109929;28;20016;-91
2023/10/26 07:13:35;;;;;;;41.95;16.83;;;8.20;99.90;;;;;;5093026;28;20024;-90
2023/10/26 07:16:03;;;;;;;36.33;14.35;;;8.20;99.90;;;;;;5089643;28;20044;-90
2023/10/26 07:18:29;;;;;;;40.75;16.25;;;8.20;99.90;;;;;;5084714;28;20358;-90
2023/10/26 07:20:55;;;;;;;36.60;15.57;;;8.30;99.90;;;;;;5099292;28;20025;-91
2023/10/26 07:23:20;;;;;;;31.90;12.95;;;8.30;99.90;;;;;;5091655;28;20571;-95
2023/10/26 07:25:46;;;;;;;32.08;14.27;;;8.30;99.90;;;;;;5098101;28;20009;-89
2023/10/26 07:28:12;;;;;;;30.67;13.00;;;8.30;99.90;;;;;;5092428;28;20008;-87
2023/10/26 07:30:40;;;;;;;28.73;12.50;;;8.30;99.90;;;;;;5093393;28;20009;-87
2023/10/26 07:33:06;;;;;;;28.60;13.07;;;8.30;99.90;;;;;;5094991;28;20029;-90
2023/10/26 07:35:40;;;;;;;29.40;13.27;;;8.30;99.90;;;;;;5083404;28;20041;-92
2023/10/26 07:38:07;;;;;;;30.65;13.10;;;8.30;99.90;;;;;;5070542;28;20039;-91
2023/10/26 07:40:33;;;;;;;34.83;12.45;;;8.30;99.90;;;;;;5091040;28;20019;-90
2023/10/26 07:42:59;;;;;;;31.80;13.00;;;8.30;99.90;;;;;;5089690;28;20016;-91
2023/10/26 07:45:28;;;;;;;29.25;12.07;;;8.40;99.90;;;;;;5088971;28;20025;-90
2023/10/26 07:47:58;;;;;;;33.10;14.40;;;8.40;99.90;;;;;;5086308;28;20033;-92
2023/10/26 07:50:24;;;;;;;40.35;15.20;;;8.40;99.90;;;;;;5055511;28;20013;-91
2023/10/26 07:52:50;;;;;;;41.60;15.75;;;8.40;99.90;;;;;;5089113;28;20049;-92
2023/10/26 07:55:17;;;;;;;39.45;15.35;;;8.40;99.90;;;;;;5087204;28;20097;-89
2023/10/26 07:57:42;;;;;;;43.90;16.83;;;8.40;99.90;;;;;;5088013;28;20055;-94
2023/10/26 08:00:11;;;;;;;34.65;14.73;;;8.40;99.90;;;;;;5084534;28;20032;-94
2023/10/26 08:02:37;;;;;;;48.35;17.42;;;8.50;99.90;;;;;;5097219;28;20025;-96
2023/10/26 08:05:03;;;;;;;51.95;17.67;;;8.50;99.90;;;;;;5086631;28;20021;-94
2023/10/26 08:07:29;;;;;;;50.20;18.65;;;8.50;99.90;;;;;;5085275;28;20028;-95
2023/10/26 08:09:55;;;;;;;51.90;17.77;;;8.50;99.90;;;;;;5097122;28;20035;-95
2023/10/26 08:12:20;;;;;;;48.78;17.80;;;8.50;99.90;;;;;;5095522;28;20028;-95
2023/10/26 08:14:46;;;;;;;38.95;14.45;;;8.50;99.90;;;;;;5093925;28;20047;-95
2023/10/26 08:17:12;;;;;;;51.95;17.98;;;8.50;99.90;;;;;;5096716;28;20049;-95
2023/10/26 08:19:38;;;;;;;49.83;17.75;;;8.50;99.90;;;;;;5088837;28;20033;-95
2023/10/26 08:22:04;;;;;;;52.75;18.35;;;8.50;99.90;;;;;;5053718;28;20025;-95
2023/10/26 08:24:31;;;;;;;53.60;18.50;;;8.60;99.90;;;;;;5056553;28;20025;-95
2023/10/26 08:26:57;;;;;;;46.55;16.13;;;8.60;99.90;;;;;;5055997;28;20036;-96
2023/10/26 08:29:24;;;;;;;53.80;17.17;;;8.60;99.90;;;;;;5062580;28;20489;-96
2023/10/26 08:31:50;;;;;;;45.13;16.92;;;8.60;99.90;;;;;;5093759;28;20028;-95
2023/10/26 08:34:16;;;;;;;41.90;16.08;;;8.60;99.90;;;;;;5064108;28;20104;-96
2023/10/26 08:36:41;;;;;;;39.90;15.20;;;8.70;99.90;;;;;;5073494;28;20549;-95
2023/10/26 08:39:08;;;;;;;42.47;15.55;;;8.70;99.90;;;;;;5072713;28;20028;-96
2023/10/26 08:41:35;;;;;;;38.13;14.57;;;8.70;99.90;;;;;;5083093;28;20032;-96
2023/10/26 08:44:04;;;;;;;34.95;13.05;;;8.70;99.90;;;;;;5074102;28;20025;-94
2023/10/26 08:46:30;;;;;;;32.83;14.38;;;8.70;99.90;;;;;;5067104;28;20027;-95
2023/10/26 08:48:58;;;;;;;35.72;14.05;;;8.80;99.90;;;;;;5064024;28;20452;-96
2023/10/26 08:51:25;;;;;;;30.88;12.50;;;8.80;99.90;;;;;;5071754;28;20025;-95
2023/10/26 08:53:50;;;;;;;30.55;12.48;;;8.80;99.90;;;;;;5065689;28;20056;-94
2023/10/26 08:56:21;;;;;;;28.10;12.20;;;8.80;99.90;;;;;;5064542;28;20028;-96
2023/10/26 08:58:47;;;;;;;24.23;9.85;;;8.80;99.90;;;;;;5065387;28;20020;-95
2023/10/26 09:01:15;;;;;;;24.90;11.27;;;8.80;99.90;;;;;;5091980;28;20055;-95
2023/10/26 09:03:43;;;;;;;24.38;10.95;;;8.90;99.90;;;;;;5081046;28;20032;-96
2023/10/26 09:06:09;;;;;;;22.17;10.82;;;8.90;99.90;;;;;;5077159;28;20028;-96
2023/10/26 09:08:34;;;;;;;17.15;7.72;;;8.90;99.90;;;;;;5069835;28;20040;-95
2023/10/26 09:11:04;;;;;;;15.60;8.02;;;9.00;99.90;;;;;;5090051;28;20029;-96
2023/10/26 09:13:29;;;;;;;16.77;9.05;;;9.00;99.90;;;;;;5077216;28;20017;-95
2023/10/26 09:15:57;;;;;;;17.50;8.70;;;9.00;99.90;;;;;;5081793;28;20033;-94
2023/10/26 09:18:25;;;;;;;15.48;7.53;;;9.10;99.90;;;;;;5086282;28;20033;-94
2023/10/26 09:21:11;;;;;;;13.30;7.00;;;9.10;99.90;;;;;;5083953;28;20050;-96
2023/10/26 09:23:39;;;;;;;13.15;7.10;;;9.10;99.90;;;;;;5105558;28;20111;-91
2023/10/26 09:26:09;;;;;;;13.77;6.80;;;9.10;99.90;;;;;;5096767;28;20047;-94
2023/10/26 09:28:56;;;;;;;14.02;7.07;;;9.20;99.90;;;;;;5093791;28;20013;-95
2023/10/26 09:31:24;;;;;;;11.73;6.40;;;9.20;99.90;;;;;;5100818;28;20024;-95
2023/10/26 09:33:50;;;;;;;11.68;6.03;;;9.20;99.90;;;;;;5072650;28;20090;-95
2023/10/26 09:36:18;;;;;;;14.85;6.45;;;9.20;99.90;;;;;;5096219;28;20022;-94
2023/10/26 09:38:45;;;;;;;11.27;5.93;;;9.20;99.90;;;;;;5095285;28;20028;-91
2023/10/26 09:41:15;;;;;;;13.90;6.88;;;9.30;99.90;;;;;;5094204;28;20020;-93
2023/10/26 09:43:42;;;;;;;13.82;6.90;;;9.30;99.90;;;;;;5091494;28;20020;-95
2023/10/26 09:46:09;;;;;;;12.40;6.82;;;9.30;99.90;;;;;;5085020;28;20024;-95
2023/10/26 09:48:35;;;;;;;14.70;6.95;;;9.30;99.90;;;;;;5088606;28;20031;-96
2023/10/26 09:51:03;;;;;;;10.82;5.97;;;9.30;99.90;;;;;;5089067;28;20021;-96
2023/10/26 09:53:38;;;;;;;13.68;6.78;;;9.40;99.90;;;;;;5095444;28;20035;-92
2023/10/26 09:56:04;;;;;;;16.25;6.55;;;9.40;99.90;;;;;;5094558;28;20025;-90
2023/10/26 09:58:40;;;;;;;9.80;5.15;;;9.50;99.90;;;;;;5099767;28;20024;-96
2023/10/26 10:01:32;;;;;;;10.10;6.25;;;9.50;99.90;;;;;;5097307;28;20023;-96
2023/10/26 10:04:02;;;;;;;8.88;5.15;;;9.60;99.90;;;;;;5087270;28;20031;-96
2023/10/26 10:06:50;;;;;;;8.43;4.65;;;9.60;99.90;;;;;;5097505;28;20547;-96
2023/10/26 10:09:20;;;;;;;7.93;4.82;;;9.70;99.90;;;;;;5097818;28;20005;-94
2023/10/26 10:12:12;;;;;;;7.93;4.50;;;9.70;99.90;;;;;;5100570;28;20024;-96
2023/10/26 10:15:13;;;;;;;5.72;3.45;;;9.80;99.90;;;;;;5095409;28;20016;-95
2023/10/26 10:17:45;;;;;;;7.10;4.03;;;9.80;99.90;;;;;;5096574;28;20032;-95
2023/10/26 10:20:14;;;;;;;6.32;3.78;;;9.80;99.90;;;;;;5098554;28;20031;-96
2023/10/26 10:22:47;;;;;;;5.35;3.10;;;9.90;99.90;;;;;;5097019;28;20032;-95
2023/10/26 10:25:23;;;;;;;6.50;3.05;;;9.90;99.90;;;;;;5098097;28;20029;-95
2023/10/26 10:27:51;;;;;;;5.43;3.10;;;10.00;99.90;;;;;;5094833;28;20558;-96
2023/10/26 10:30:29;;;;;;;3.63;2.40;;;10.10;99.90;;;;;;5099280;28;20024;-94
2023/10/26 10:32:57;;;;;;;4.03;2.90;;;10.20;99.90;;;;;;5097482;28;20045;-95
2023/10/26 10:35:22;;;;;;;3.67;2.15;;;10.30;99.90;;;;;;5098810;28;20041;-96
2023/10/26 10:38:13;;;;;;;2.63;2.08;;;10.40;99.90;;;;;;5099206;28;20005;-95
2023/10/26 10:40:54;;;;;;;2.40;1.73;;;10.50;99.90;;;;;;5096944;28;20024;-94
2023/10/26 10:43:37;;;;;;;3.20;2.35;;;10.60;99.90;;;;;;5097345;28;20016;-95
2023/10/26 10:46:14;;;;;;;2.10;1.80;;;10.60;99.90;;;;;;5095529;28;20028;-94
2023/10/26 10:48:58;;;;;;;2.80;1.80;;;10.70;99.90;;;;;;5097211;28;20035;-93
2023/10/26 10:51:35;;;;;;;2.45;1.90;;;10.80;99.90;;;;;;5097848;28;20059;-92
2023/10/26 10:54:12;;;;;;;2.30;1.73;;;10.80;99.90;;;;;;5091895;28;20056;-96
2023/10/26 10:56:39;;;;;;;2.97;1.80;;;10.80;99.90;;;;;;5085577;28;20036;-93
2023/10/26 10:59:26;;;;;;;2.10;1.60;;;10.80;99.90;;;;;;5094589;28;20009;-94
2023/10/26 11:02:12;;;;;;;2.03;1.70;;;10.90;99.90;;;;;;5094467;28;20143;-95
2023/10/26 11:04:57;;;;;;;2.88;1.58;;;10.90;99.90;;;;;;5097057;28;20065;-95
2023/10/26 11:07:28;;;;;;;2.42;1.92;;;10.90;99.90;;;;;;5094425;28;20013;-94
2023/10/26 11:10:03;;;;;;;3.22;2.00;;;10.80;99.90;;;;;;5082402;28;20032;-95
2023/10/26 11:12:29;;;;;;;3.40;2.30;;;10.80;99.90;;;;;;5072540;28;20016;-92
2023/10/26 11:14:56;;;;;;;3.60;1.60;;;10.80;99.90;;;;;;5073452;28;20035;-96
2023/10/26 11:17:23;;;;;;;2.80;2.03;;;10.90;99.90;;;;;;5072529;28;20021;-94
2023/10/26 11:19:50;;;;;;;3.60;1.90;;;10.90;99.90;;;;;;5071980;28;20059;-95
2023/10/26 11:22:17;;;;;;;2.38;2.17;;;10.90;99.90;;;;;;5078064;28;20020;-96
2023/10/26 11:24:44;;;;;;;2.83;2.10;;;10.90;99.90;;;;;;5073926;28;20039;-94
2023/10/26 11:27:12;;;;;;;2.70;1.63;;;11.00;99.90;;;;;;5070700;28;20050;-94
2023/10/26 11:29:40;;;;;;;1.75;1.58;;;11.00;99.90;;;;;;5072059;28;20075;-95
2023/10/26 11:32:25;;;;;;;3.70;1.75;;;11.00;99.90;;;;;;5073460;28;20048;-92
2023/10/26 11:35:13;;;;;;;2.33;1.60;;;11.10;99.90;;;;;;5071639;28;20142;-96
2023/10/26 11:37:48;;;;;;;3.80;1.90;;;11.10;99.90;;;;;;5071487;28;20027;-95
2023/10/26 11:40:15;;;;;;;2.22;1.73;;;11.00;99.90;;;;;;5073317;28;20020;-95
2023/10/26 11:42:58;;;;;;;3.13;1.60;;;11.00;99.90;;;;;;5074983;28;20115;-94
2023/10/26 11:45:27;;;;;;;1.90;1.38;;;11.00;99.90;;;;;;5072831;28;20020;-94
2023/10/26 11:47:58;;;;;;;2.10;1.30;;;11.00;99.90;;;;;;5071707;28;20082;-95
2023/10/26 11:50:24;;;;;;;;;;;11.00;99.90;;;;;;5071687;28;20028;-94
2023/10/26 11:52:52;;;;;;;1.88;1.70;;;10.90;99.90;;;;;;5070648;28;19914;-94
2023/10/26 11:55:18;;;;;;;2.25;1.60;;;10.90;99.90;;;;;;5072366;28;20396;-94
2023/10/26 11:57:45;;;;;;;1.77;1.40;;;10.90;99.90;;;;;;5071859;28;20093;-93
2023/10/26 12:00:11;;;;;;;2.08;1.50;;;10.90;99.90;;;;;;5072260;28;20047;-93
2023/10/26 12:02:37;;;;;;;2.20;1.50;;;10.90;99.90;;;;;;5072208;28;20029;-96
2023/10/26 12:05:03;;;;;;;1.80;1.70;;;10.90;99.90;;;;;;5085517;28;20040;-95
2023/10/26 12:07:30;;;;;;;3.15;1.58;;;10.90;99.90;;;;;;5074959;28;20021;-96
2023/10/26 12:09:56;;;;;;;1.77;1.67;;;10.90;99.90;;;;;;5069954;28;20119;-95
2023/10/26 12:12:21;;;;;;;2.55;1.70;;;10.90;99.90;;;;;;5083128;28;20054;-95
2023/10/26 12:14:47;;;;;;;2.92;1.70;;;10.90;99.90;;;;;;5053466;28;20040;-92
2023/10/26 12:17:13;;;;;;;2.03;1.85;;;10.90;99.90;;;;;;5067564;28;20020;-94
2023/10/26 12:19:39;;;;;;;2.90;1.50;;;10.90;99.90;;;;;;5069916;28;20393;-92
2023/10/26 12:22:05;;;;;;;2.38;1.90;;;10.90;99.90;;;;;;5069286;28;20028;-92
2023/10/26 12:24:31;;;;;;;4.97;1.85;;;10.90;99.90;;;;;;5068759;28;20024;-93
2023/10/26 12:26:57;;;;;;;2.40;2.20;;;10.90;99.90;;;;;;5066265;28;20024;-94
2023/10/26 12:29:22;;;;;;;2.50;2.28;;;10.90;99.90;;;;;;5077170;28;20489;-95
2023/10/26 12:31:48;;;;;;;1.70;1.60;;;10.90;99.90;;;;;;5074560;28;20020;-95
2023/10/26 12:34:14;;;;;;;3.50;1.90;;;10.90;99.90;;;;;;5087042;28;20446;-96
2023/10/26 12:36:39;;;;;;;2.72;1.70;;;10.90;99.90;;;;;;5065738;28;20474;-95
2023/10/26 12:39:05;;;;;;;5.00;2.30;;;10.90;99.90;;;;;;5072219;28;20052;-92
2023/10/26 12:41:31;;;;;;;3.08;2.03;;;10.90;99.90;;;;;;5072154;28;20055;-93
2023/10/26 12:43:56;;;;;;;2.85;2.28;;;10.90;99.90;;;;;;5072291;28;20039;-94